Morganton, NC

8:56 AM EDT on September 04, 2015 (GMT -0400)
Burkemont | | Change Station
CLOSE
Current Station
Personal Weather Station
Location: Morganton, NC
Elevation: 1188 ft
Nearby Weather Stations

Elev 1188 ft 35.73 °N, 81.69 °W | Updated 1 second ago

Clear
Clear
69.1 °F
Feels Like 69.1 °F
N
0.0
Wind Variable Wind from NE
Gusts 0.0 mph

Today
High -- | Low -- °F
--% Chance of Precip.
Yesterday
High -- | Low -- °F
Precip. -- in
7:01 AM 7:50 PM
Waning Gibbous, 60% visible
Pressure 30.10 in
Visibility 7.0 miles
Clouds Clear
Dew Point 66 °F
Humidity 91%
Rainfall 0.00 in
Snow Depth Not available.
UV 1 out of 12
Pollen 8.80 out of 12
Air Quality Not available.
Flu Activity Not available.
METAR KMRN 041235Z AUTO 00000KT 7SM CLR 20/20 A3010 RMK AO2 T02010197
Pressure 30.10 in
Visibility 7.0 miles
Clouds Clear
Dew Point 66 °F
Humidity 91%
Rainfall 0.00 in
Snow Depth Not available.
UV 1 out of 12
Pollen 8.80 out of 12
Air Quality Not available.
Flu Activity Not available.
METAR KMRN 041235Z AUTO 00000KT 7SM CLR 20/20 A3010 RMK AO2 T02010197

10-Day Weather Forecast

×

Almanac

Astronomy

Sep. 04, 2015 Rise Set
Actual Time
Civil Twilight
Nautical Twilight
Astronomical Twilight
Moon
Length of Visible Light
Length of Day
Tomorrow will be .
, % of the Moon is Illuminated

Today's Extremes

State Highs State Lows

Community

WunderPhotos

Upload Photos

1,852,174 photos uploaded!

WunderBlogs® & News

Nearby

Air Quality

  Air Quality AQ Index Pollutant
Not available.

Snow Depth

Station Depth Elevation

Earthquake Activity

City Distance Mag. Time & Date
Minimum magnitude displayed is 2.5.

Coastal Water Temperatures

Place Temperature

Stations

Nearby Weather Stations

Station Location Temp. Windchill Dew Point Humidity Wind Precip. Elev Updated Type